BAW28F KLAX-EGLL
Flight info
| Callsign | BAW28F |
|---|---|
| Flight time | N/A |
| Altitude | 33000 |
| Route | OSHNN1 BEALE Q842 WINEN DCT MLF DCT BOY DCT LSCOM/N0485F350 DCT KIXCO DCT BOWIS DCT GOVAB DCT DEPMI DCT SEDIB DCT AXENO DCT YTL DCT YPO DCT KEMSA DCT 59N070W DCT COPUR DCT MIBNO/M084F350 DCT MAXAR DCT 6230N05000W/M084F370 6230N04000W 61N030W 59N020W DCT AGORI/N0483F370 DCT OSBOX DCT MIMKU DCT KELLY L10 WAL UY53 NUGRA |
| Aircraft | B77W/H-SDE1E2E3FGHIJ2J3J4J5M1RWXY/LB1D1 |
Departure
| Time | 2026-04-22 21:30 |
|---|---|
| Airport | Los Angeles International Airport (KLAX) |
Arrival
| Time | N/A |
|---|---|
| Airport | London Heathrow Airport (EGLL) |
| Time | Latitude | Longitude | Altitude | Speed | Heading |
|---|---|---|---|---|---|
| 2026-04-22 21:05 | 33.94024 | -118.40927 | 130 ft | 0 kts | 264° |
| 2026-04-22 21:15 | 33.94024 | -118.40924 | 130 ft | 3 kts | 261° |
| 2026-04-22 21:15 | 33.94032 | -118.40895 | 125 ft | 3 kts | 243° |
| 2026-04-22 21:15 | 33.94038 | -118.40881 | 125 ft | 3 kts | 237° |
| 2026-04-22 21:16 | 33.94049 | -118.40861 | 125 ft | 3 kts | 227° |
| 2026-04-22 21:16 | 33.94064 | -118.40846 | 125 ft | 3 kts | 209° |
| 2026-04-22 21:16 | 33.94083 | -118.40837 | 127 ft | 3 kts | 191° |
| 2026-04-22 21:16 | 33.94101 | -118.40835 | 127 ft | 0 kts | 172° |
| 2026-04-22 21:20 | 33.94099 | -118.40834 | 128 ft | 1 kts | 172° |
| 2026-04-22 21:20 | 33.94074 | -118.40830 | 126 ft | 6 kts | 172° |
| 2026-04-22 21:21 | 33.94026 | -118.40822 | 125 ft | 7 kts | 172° |
| 2026-04-22 21:21 | 33.93978 | -118.40816 | 128 ft | 7 kts | 173° |
| 2026-04-22 21:21 | 33.93930 | -118.40806 | 128 ft | 8 kts | 165° |
| 2026-04-22 21:21 | 33.93865 | -118.40760 | 126 ft | 11 kts | 145° |
| 2026-04-22 21:22 | 33.93818 | -118.40689 | 126 ft | 11 kts | 107° |
| 2026-04-22 21:22 | 33.93817 | -118.40595 | 128 ft | 11 kts | 83° |
| 2026-04-22 21:22 | 33.93827 | -118.40500 | 126 ft | 12 kts | 83° |
| 2026-04-22 21:22 | 33.93837 | -118.40401 | 126 ft | 12 kts | 83° |
| 2026-04-22 21:23 | 33.93848 | -118.40302 | 130 ft | 12 kts | 83° |
| 2026-04-22 21:23 | 33.93858 | -118.40202 | 130 ft | 12 kts | 83° |
| 2026-04-22 21:23 | 33.93868 | -118.40102 | 126 ft | 12 kts | 83° |
| 2026-04-22 21:23 | 33.93878 | -118.40003 | 130 ft | 12 kts | 83° |
| 2026-04-22 21:24 | 33.93888 | -118.39904 | 129 ft | 12 kts | 83° |
| 2026-04-22 21:24 | 33.93898 | -118.39801 | 126 ft | 13 kts | 83° |
| 2026-04-22 21:24 | 33.93910 | -118.39680 | 125 ft | 16 kts | 83° |
| 2026-04-22 21:24 | 33.93925 | -118.39537 | 127 ft | 18 kts | 83° |
| 2026-04-22 21:25 | 33.93941 | -118.39386 | 126 ft | 18 kts | 83° |
| 2026-04-22 21:25 | 33.93957 | -118.39237 | 127 ft | 18 kts | 83° |
| 2026-04-22 21:25 | 33.93972 | -118.39086 | 129 ft | 18 kts | 83° |
| 2026-04-22 21:25 | 33.93987 | -118.38934 | 129 ft | 18 kts | 83° |
| 2026-04-22 21:26 | 33.94003 | -118.38783 | 129 ft | 18 kts | 83° |
| 2026-04-22 21:26 | 33.94018 | -118.38631 | 127 ft | 18 kts | 83° |
| 2026-04-22 21:26 | 33.94034 | -118.38481 | 127 ft | 18 kts | 83° |
| 2026-04-22 21:26 | 33.94049 | -118.38331 | 129 ft | 18 kts | 83° |
| 2026-04-22 21:27 | 33.94064 | -118.38183 | 130 ft | 17 kts | 83° |
| 2026-04-22 21:27 | 33.94072 | -118.38105 | 130 ft | 5 kts | 83° |
| 2026-04-22 21:27 | 33.94076 | -118.38066 | 130 ft | 5 kts | 83° |
| 2026-04-22 21:27 | 33.94068 | -118.38028 | 126 ft | 5 kts | 126° |
| 2026-04-22 21:28 | 33.94038 | -118.38010 | 126 ft | 5 kts | 165° |
| 2026-04-22 21:28 | 33.94004 | -118.38011 | 127 ft | 5 kts | 199° |
| 2026-04-22 21:28 | 33.93979 | -118.38062 | 128 ft | 9 kts | 257° |
| 2026-04-22 21:28 | 33.93978 | -118.38077 | 130 ft | 0 kts | 262° |
| 2026-04-22 21:29 | 33.93976 | -118.38095 | 130 ft | 11 kts | 262° |
| 2026-04-22 21:29 | 33.93948 | -118.38386 | 127 ft | 71 kts | 263° |
| 2026-04-22 21:29 | 33.93854 | -118.39308 | 129 ft | 150 kts | 263° |
| 2026-04-22 21:29 | 33.93705 | -118.40780 | 376 ft | 188 kts | 263° |
| 2026-04-22 21:30 | 33.93543 | -118.42360 | 1303 ft | 188 kts | 262° |
| 2026-04-22 21:30 | 33.93377 | -118.43967 | 2065 ft | 204 kts | 263° |
| 2026-04-22 21:30 | 33.93110 | -118.45749 | 2464 ft | 223 kts | 246° |
| 2026-04-22 21:30 | 33.92235 | -118.47282 | 2994 ft | 230 kts | 232° |
| 2026-04-22 21:31 | 33.91196 | -118.48857 | 3345 ft | 247 kts | 233° |
| 2026-04-22 21:31 | 33.90096 | -118.50482 | 4068 ft | 250 kts | 232° |
| 2026-04-22 21:31 | 33.88950 | -118.52110 | 4765 ft | 257 kts | 232° |
| 2026-04-22 21:31 | 33.87776 | -118.53780 | 5016 ft | 271 kts | 232° |
| 2026-04-22 21:32 | 33.86406 | -118.55340 | 4987 ft | 276 kts | 211° |
| 2026-04-22 21:32 | 33.84560 | -118.56037 | 5026 ft | 279 kts | 186° |
| 2026-04-22 21:32 | 33.82638 | -118.55794 | 5282 ft | 277 kts | 168° |
| 2026-04-22 21:32 | 33.80767 | -118.55236 | 5817 ft | 284 kts | 168° |
| 2026-04-22 21:33 | 33.78824 | -118.54669 | 6596 ft | 286 kts | 168° |
| 2026-04-22 21:33 | 33.76856 | -118.54103 | 7309 ft | 289 kts | 169° |
| 2026-04-22 21:33 | 33.74885 | -118.53543 | 8039 ft | 291 kts | 169° |
| 2026-04-22 21:33 | 33.72913 | -118.52985 | 8735 ft | 294 kts | 170° |
| 2026-04-22 21:34 | 33.70970 | -118.52278 | 9360 ft | 299 kts | 154° |
| 2026-04-22 21:34 | 33.69383 | -118.50597 | 9914 ft | 311 kts | 123° |
| 2026-04-22 21:34 | 33.68511 | -118.48225 | 10459 ft | 314 kts | 109° |
| 2026-04-22 21:34 | 33.67795 | -118.45711 | 10945 ft | 322 kts | 109° |
| 2026-04-22 21:35 | 33.67056 | -118.43128 | 11472 ft | 331 kts | 110° |
| 2026-04-22 21:35 | 33.66283 | -118.40479 | 11978 ft | 342 kts | 110° |
| 2026-04-22 21:35 | 33.65467 | -118.37711 | 12522 ft | 353 kts | 110° |
| 2026-04-22 21:35 | 33.64796 | -118.34835 | 13060 ft | 365 kts | 101° |
| 2026-04-22 21:36 | 33.64410 | -118.31847 | 13589 ft | 376 kts | 95° |
| 2026-04-22 21:36 | 33.64326 | -118.28640 | 14127 ft | 387 kts | 88° |
| 2026-04-22 21:36 | 33.64391 | -118.25355 | 14630 ft | 398 kts | 88° |
| 2026-04-22 21:36 | 33.64481 | -118.21996 | 15092 ft | 405 kts | 83° |
| 2026-04-22 21:37 | 33.65220 | -118.18712 | 15568 ft | 411 kts | 60° |
| 2026-04-22 21:37 | 33.66830 | -118.15856 | 16087 ft | 412 kts | 40° |
| 2026-04-22 21:37 | 33.69018 | -118.13678 | 16583 ft | 409 kts | 30° |
| 2026-04-22 21:37 | 33.71324 | -118.11676 | 17106 ft | 418 kts | 30° |
| 2026-04-22 21:38 | 33.73718 | -118.09608 | 17649 ft | 428 kts | 30° |
| 2026-04-22 21:38 | 33.76146 | -118.07487 | 18198 ft | 437 kts | 30° |
| 2026-04-22 21:38 | 33.78598 | -118.05315 | 18739 ft | 444 kts | 30° |
| 2026-04-22 21:38 | 33.81124 | -118.03053 | 19264 ft | 451 kts | 31° |
| 2026-04-22 21:39 | 33.83667 | -118.00763 | 19793 ft | 459 kts | 31° |
| 2026-04-22 21:39 | 33.86255 | -117.98427 | 20335 ft | 464 kts | 31° |
| 2026-04-22 21:39 | 33.88819 | -117.96116 | 20922 ft | 468 kts | 31° |
| 2026-04-22 21:39 | 33.91456 | -117.93737 | 21511 ft | 473 kts | 31° |
| 2026-04-22 21:40 | 33.94085 | -117.91342 | 22065 ft | 477 kts | 32° |
| 2026-04-22 21:40 | 33.96746 | -117.88903 | 22640 ft | 482 kts | 32° |
| 2026-04-22 21:40 | 33.99432 | -117.86442 | 23170 ft | 487 kts | 32° |
| 2026-04-22 21:40 | 34.02150 | -117.83954 | 23709 ft | 492 kts | 32° |
| 2026-04-22 21:41 | 34.04887 | -117.81447 | 24163 ft | 495 kts | 32° |
| 2026-04-22 21:41 | 34.07611 | -117.78852 | 24648 ft | 501 kts | 36° |
| 2026-04-22 21:41 | 34.10170 | -117.75958 | 25119 ft | 508 kts | 41° |
| 2026-04-22 21:41 | 34.12494 | -117.72723 | 25556 ft | 514 kts | 47° |
| 2026-04-22 21:42 | 34.14716 | -117.69368 | 25998 ft | 518 kts | 47° |
| 2026-04-22 21:42 | 34.16958 | -117.65950 | 26436 ft | 521 kts | 47° |
| 2026-04-22 21:42 | 34.19231 | -117.62505 | 26875 ft | 524 kts | 47° |
| 2026-04-22 21:42 | 34.21527 | -117.59060 | 27330 ft | 526 kts | 47° |
| 2026-04-22 21:43 | 34.23849 | -117.55600 | 27681 ft | 530 kts | 46° |
| 2026-04-22 21:43 | 34.26178 | -117.52140 | 28086 ft | 533 kts | 46° |
| 2026-04-22 21:43 | 34.28493 | -117.48695 | 28471 ft | 535 kts | 46° |
| 2026-04-22 21:43 | 34.30852 | -117.45176 | 28821 ft | 538 kts | 46° |
| 2026-04-22 21:44 | 34.33218 | -117.41642 | 29176 ft | 541 kts | 46° |
| 2026-04-22 21:44 | 34.35592 | -117.38093 | 29495 ft | 544 kts | 46° |
| 2026-04-22 21:44 | 34.37985 | -117.34511 | 29806 ft | 547 kts | 46° |
| 2026-04-22 21:44 | 34.40377 | -117.30925 | 30145 ft | 548 kts | 46° |
| 2026-04-22 21:45 | 34.42786 | -117.27309 | 30522 ft | 548 kts | 46° |
| 2026-04-22 21:45 | 34.45165 | -117.23732 | 30933 ft | 546 kts | 46° |
| 2026-04-22 21:45 | 34.47553 | -117.20142 | 31313 ft | 546 kts | 46° |
| 2026-04-22 21:45 | 34.49921 | -117.16579 | 31632 ft | 546 kts | 46° |
| 2026-04-22 21:46 | 34.52303 | -117.12992 | 31955 ft | 546 kts | 46° |
| 2026-04-22 21:46 | 34.54702 | -117.09378 | 32300 ft | 545 kts | 46° |
| 2026-04-22 21:46 | 34.57119 | -117.05806 | 32624 ft | 545 kts | 45° |
| 2026-04-22 21:46 | 34.59551 | -117.02273 | 32941 ft | 544 kts | 45° |
| 2026-04-22 21:47 | 34.64417 | -116.95240 | 33060 ft | 546 kts | 45° |
| 2026-04-22 21:47 | 34.69297 | -116.88135 | 33070 ft | 545 kts | 45° |
| 2026-04-22 21:48 | 34.74139 | -116.81043 | 33076 ft | 544 kts | 45° |
| 2026-04-22 21:48 | 34.78957 | -116.73971 | 33080 ft | 544 kts | 45° |
| 2026-04-22 21:49 | 34.83783 | -116.66877 | 33076 ft | 545 kts | 45° |
| 2026-04-22 21:49 | 34.88680 | -116.59863 | 33058 ft | 543 kts | 42° |
| 2026-04-22 21:50 | 34.92936 | -116.54235 | 33047 ft | 543 kts | 41° |
| 2026-04-22 21:50 | 34.98118 | -116.47462 | 33041 ft | 544 kts | 41° |
| 2026-04-22 21:51 | 35.03210 | -116.40698 | 33031 ft | 545 kts | 42° |
| 2026-04-22 21:52 | 35.10878 | -116.30378 | 33022 ft | 544 kts | 42° |
| 2026-04-22 21:52 | 35.15942 | -116.23543 | 33029 ft | 544 kts | 42° |
| 2026-04-22 21:53 | 35.21029 | -116.16670 | 33022 ft | 545 kts | 42° |
| 2026-04-22 21:53 | 35.26108 | -116.09800 | 33031 ft | 544 kts | 42° |
| 2026-04-22 21:54 | 35.31163 | -116.02948 | 33047 ft | 545 kts | 43° |
| 2026-04-22 21:54 | 35.36262 | -115.96020 | 33043 ft | 546 kts | 43° |
| 2026-04-22 21:55 | 35.41355 | -115.89085 | 33050 ft | 546 kts | 43° |
| 2026-04-22 21:55 | 35.46414 | -115.82183 | 33055 ft | 547 kts | 43° |
| 2026-04-22 21:56 | 35.51513 | -115.75213 | 33061 ft | 548 kts | 43° |
| 2026-04-22 21:56 | 35.56583 | -115.68267 | 33064 ft | 548 kts | 43° |
| 2026-04-22 21:57 | 35.61710 | -115.61228 | 33062 ft | 548 kts | 43° |
| 2026-04-22 21:57 | 35.66803 | -115.54223 | 33053 ft | 548 kts | 43° |
| 2026-04-22 21:58 | 35.71874 | -115.47231 | 33066 ft | 549 kts | 43° |
| 2026-04-22 21:58 | 35.76953 | -115.40209 | 33041 ft | 549 kts | 43° |
| 2026-04-22 21:59 | 35.81996 | -115.33219 | 33049 ft | 550 kts | 43° |
| 2026-04-22 21:59 | 35.87093 | -115.26138 | 33043 ft | 551 kts | 43° |
| 2026-04-22 22:00 | 35.92187 | -115.19049 | 33036 ft | 552 kts | 43° |
| 2026-04-22 22:00 | 35.97270 | -115.11958 | 33038 ft | 551 kts | 43° |
| 2026-04-22 22:01 | 36.02327 | -115.04880 | 33087 ft | 553 kts | 43° |
| 2026-04-22 22:01 | 36.07439 | -114.97725 | 33013 ft | 554 kts | 43° |
| 2026-04-22 22:02 | 36.12516 | -114.90600 | 32964 ft | 553 kts | 43° |
| 2026-04-22 22:02 | 36.17941 | -114.83920 | 32957 ft | 545 kts | 32° |
| 2026-04-22 22:03 | 36.24119 | -114.78529 | 32956 ft | 538 kts | 21° |
| 2026-04-22 22:03 | 36.30699 | -114.74201 | 32943 ft | 536 kts | 19° |
| 2026-04-22 22:04 | 36.37313 | -114.69923 | 32933 ft | 535 kts | 20° |
| 2026-04-22 22:04 | 36.43876 | -114.65594 | 32912 ft | 536 kts | 20° |
| 2026-04-22 22:05 | 36.50439 | -114.61219 | 32916 ft | 538 kts | 20° |
| 2026-04-22 22:05 | 36.57047 | -114.56804 | 32918 ft | 538 kts | 20° |
| 2026-04-22 22:06 | 36.63661 | -114.52384 | 32919 ft | 539 kts | 20° |
| 2026-04-22 22:06 | 36.70223 | -114.47990 | 32923 ft | 539 kts | 21° |
| 2026-04-22 22:07 | 36.76716 | -114.43149 | 32925 ft | 545 kts | 25° |
| 2026-04-22 22:07 | 36.83123 | -114.38062 | 32924 ft | 547 kts | 25° |
| 2026-04-22 22:08 | 36.89542 | -114.32954 | 32922 ft | 547 kts | 25° |
| 2026-04-22 22:08 | 36.95975 | -114.27874 | 32920 ft | 548 kts | 25° |
| 2026-04-22 22:09 | 37.02408 | -114.22806 | 32922 ft | 548 kts | 25° |
| 2026-04-22 22:09 | 37.08882 | -114.17696 | 32927 ft | 549 kts | 25° |
| 2026-04-22 22:10 | 37.15356 | -114.12571 | 32922 ft | 549 kts | 25° |
| 2026-04-22 22:10 | 37.21817 | -114.07443 | 32939 ft | 549 kts | 25° |